The Medway Towns, United Kingdom
Current Conditions -  °F | °C
As of 9:20 AM on Wednesday 28 Jan 2015 (Local Time) from EGMC Reporting Station
Broken Clouds Broken Clouds  
Wind Chill:   Ceiling: 900
Heat Index:   Visibility: 6mi
Dew Point:   Wind: 24mph
Humidity: 87%   Direction: 210°SSW
Pressure: 29.59"   Gusts: NA
Location:  51.36°N, 0.54°E
Report Text: EGMC 280920Z 21021KT 9999 BKN009 BKN014 09/07 Q1002
Loading
Personal Weather Stations






























Interactive Weather Map New forecast layout! Learn more

10-Day Weather Forecast

Advertisements
Track Severe Weather on mobile